EW9366 Weather Reports


Display with metric or nautical units.
time (UTC)temp
F
wind
direction
speed
MPH
gust
MPH
rain 1hr
in
rain 24hr
in
rain mn
in
humidity
%
barometer
mb
20260509035451 58 298 0.0 3.0 0.00 0.06 0.06 88 1010.1
20260509034952 58 209 0.0 1.0 0.00 0.06 0.06 87 1009.9
20260509034452 58 209 0.0 0.0 0.00 0.06 0.06 87 1009.8
20260509033929 59 209 0.0 0.0 0.00 0.06 0.06 86 1009.7
20260509033856 59 209 0.0 1.0 0.00 0.06 0.06 85 1009.5
20260509032908 60 209 0.0 1.0 0.00 0.06 0.06 85 1009.4
20260509032409 60 209 0.0 1.0 0.00 0.06 0.06 85 1009.4
20260509032335 60 210 0.0 1.0 0.00 0.06 0.06 84 1009.2
20260509031806 60 222 0.0 1.0 0.00 0.06 0.06 84 1009.1
20260509030759 60 153 0.0 1.0 0.00 0.06 0.06 84 1008.8
20260509030255 61 158 0.0 1.0 0.00 0.06 0.06 84 1008.6
20260509025755 61 178 0.0 2.0 0.00 0.06 0.06 84 1008.5
20260509025231 61 150 0.0 1.0 0.00 0.06 0.06 84 1008.4
20260509024709 61 200 0.0 3.0 0.00 0.06 0.06 84 1008.3
20260509024201 61 197 0.0 3.0 0.00 0.06 0.06 83 1008.2
20260509023711 62 143 0.0 3.0 0.00 0.06 0.06 82 1008.1
20260509023136 62 140 1.0 3.0 0.00 0.06 0.06 81 1008.1
20260509023129 62 148 1.0 3.0 0.00 0.06 0.06 80 1007.9
20260509022555 62 203 1.0 4.0 0.01 0.06 0.06 79 1008.0
20260509021619 62 162 1.0 4.0 0.01 0.06 0.06 78 1007.8
20260509021120 62 222 1.0 2.0 0.03 0.06 0.06 78 1007.9
20260509020616 62 193 1.0 5.0 0.03 0.06 0.06 77 1007.8
20260509020551 62 145 2.0 6.0 0.03 0.06 0.06 78 1007.9
20260509015540 62 205 2.0 6.0 0.04 0.06 0.06 77 1007.8
20260509015038 62 219 2.0 6.0 0.04 0.06 0.06 76 1007.6
20260509015033 62 189 2.0 6.0 0.04 0.06 0.06 77 1007.7
20260509014023 62 160 3.0 7.0 0.05 0.06 0.06 76 1007.4
20260509013516 62 195 3.0 7.0 0.06 0.06 0.06 76 1006.8
20260509012949 63 121 3.0 11.0 0.06 0.06 0.06 74 1007.3
20260509012433 64 205 3.0 11.0 0.06 0.06 0.06 72 1008.4
20260509011907 64 199 3.0 8.0 0.05 0.05 0.05 71 1008.6
20260509011341 65 282 3.0 9.0 0.04 0.04 0.04 69 1009.1
20260509010812 65 228 3.0 9.0 0.03 0.03 0.03 67 1008.7
20260509010250 65 315 4.0 19.0 0.03 0.03 0.03 69 1008.6
20260509005746 65 231 8.0 26.0 0.02 0.02 0.02 67 1008.6
20260509005222 67 269 7.0 26.0 0.02 0.02 0.02 68 1009.3
20260509004721 67 262 2.0 10.0 0.02 0.02 0.02 71 1009.3
20260509004153 68 129 2.0 6.0 0.01 0.01 0.01 74 1009.8
20260509003627 69 258 4.0 10.0 0.00 0.00 0.00 70 1010.2
20260509003124 70 259 3.0 10.0 0.00 0.00 0.00 68 1010.1
20260509002617 70 260 3.0 6.0 0.00 0.00 0.00 66 1009.9
20260509002052 70 252 3.0 6.0 0.00 0.00 0.00 65 1009.9
20260509001552 70 233 2.0 5.0 0.00 0.00 0.00 66 1009.6
20260509001051 70 248 0.0 2.0 0.00 0.00 0.00 64 1009.2
20260509000524 71 217 0.0 0.0 0.00 0.00 0.00 64 1008.7
20260509000008 71 217 0.0 0.0 0.00 0.00 0.00 62 1008.5
20260508235506 72 218 0.0 0.0 0.00 0.00 0.00 61 1008.1
20260508235002 72 217 0.0 0.0 0.00 0.00 0.00 62 1008.1
20260508234437 73 218 0.0 0.0 0.00 0.00 0.00 61 1008.1
20260508234358 73 218 0.0 0.0 0.00 0.00 0.00 59 1008.2
20260508233405 74 218 0.0 0.0 0.00 0.00 0.00 59 1008.2
20260508232840 74 218 0.0 1.0 0.00 0.00 0.00 59 1008.1
20260508232325 74 218 0.0 1.0 0.00 0.00 0.00 59 1008.3
20260508231759 75 218 2.0 7.0 0.00 0.00 0.00 55 1008.3
20260508231253 75 256 3.0 7.0 0.00 0.00 0.00 53 1008.4
20260508231241 76 253 3.0 7.0 0.00 0.00 0.00 52 1008.3
20260508230715 77 257 4.0 7.0 0.00 0.00 0.00 52 1008.4
20260508230148 77 243 3.0 7.0 0.00 0.00 0.00 53 1008.3
20260508225137 77 269 2.0 9.0 0.00 0.00 0.00 53 1008.5
20260508224611 77 257 1.0 9.0 0.00 0.00 0.00 52 1008.4
20260508224043 78 222 0.0 5.0 0.00 0.00 0.00 52 1008.3
20260508223541 79 212 1.0 7.0 0.00 0.00 0.00 51 1008.1
20260508223013 79 224 1.0 7.0 0.00 0.00 0.00 51 1008.0
20260508222446 80 229 1.0 5.0 0.00 0.00 0.00 53 1008.0
20260508221943 81 217 1.0 5.0 0.00 0.00 0.00 50 1008.1
20260508221441 80 255 1.0 5.0 0.00 0.00 0.00 50 1008.0
20260508220917 80 209 1.0 5.0 0.00 0.00 0.00 50 1008.0
20260508220415 81 221 0.0 4.0 0.00 0.00 0.00 50 1008.1
20260508220401 80 225 1.0 4.0 0.00 0.00 0.00 52 1008.0
20260508215416 80 211 1.0 4.0 0.00 0.00 0.00 52 1008.0
20260508214918 80 199 1.0 4.0 0.00 0.00 0.00 51 1007.9
20260508214415 80 205 0.0 3.0 0.00 0.00 0.00 54 1008.0
20260508214400 80 207 1.0 3.0 0.00 0.00 0.00 52 1008.1
20260508213849 80 200 1.0 3.0 0.00 0.00 0.00 52 1008.2
20260508212908 80 212 0.0 2.0 0.00 0.00 0.00 50 1008.3
20260508212407 80 188 1.0 3.0 0.00 0.00 0.00 53 1008.4
20260508211909 80 120 1.0 3.0 0.00 0.00 0.00 50 1008.3
20260508211342 80 210 1.0 3.0 0.00 0.00 0.00 51 1008.3
20260508210815 80 193 1.0 3.0 0.00 0.00 0.00 49 1008.3
20260508210313 80 208 1.0 4.0 0.00 0.00 0.00 51 1008.4
20260508210244 80 227 1.0 4.0 0.00 0.00 0.00 53 1008.4
20260508205306 80 160 1.0 4.0 0.00 0.00 0.00 49 1008.5
20260508204802 80 200 1.0 5.0 0.00 0.00 0.00 52 1008.7
20260508204237 80 198 1.0 5.0 0.00 0.00 0.00 50 1008.5
20260508204149 80 217 1.0 4.0 0.00 0.00 0.00 49 1008.6
20260508203141 80 228 2.0 5.0 0.00 0.00 0.00 49 1008.6
20260508202639 80 203 1.0 5.0 0.00 0.00 0.00 48 1008.7
20260508202120 81 206 1.0 4.0 0.00 0.00 0.00 52 1008.7
20260508201623 80 148 1.0 4.0 0.00 0.00 0.00 51 1008.8
20260508201055 81 205 1.0 4.0 0.00 0.00 0.00 48 1008.8
20260508200552 81 146 1.0 3.0 0.00 0.00 0.00 46 1009.0
20260508200025 81 144 1.0 4.0 0.00 0.00 0.00 48 1009.1
20260508195522 81 190 1.0 4.0 0.00 0.00 0.00 49 1009.1
20260508194954 81 248 1.0 2.0 0.00 0.00 0.00 52 1009.2
20260508194428 80 190 1.0 3.0 0.00 0.00 0.00 52 1009.4
20260508193923 80 201 1.0 3.0 0.00 0.00 0.00 49 1009.5
20260508193918 80 176 1.0 5.0 0.00 0.00 0.00 50 1009.4
20260508192850 80 213 1.0 5.0 0.00 0.00 0.00 48 1009.4
20260508192326 80 121 1.0 4.0 0.00 0.00 0.00 51 1009.4
20260508191759 80 192 1.0 4.0 0.00 0.00 0.00 48 1009.6
20260508191231 80 168 1.0 4.0 0.00 0.00 0.00 48 1009.7
20260508190729 80 210 1.0 3.0 0.00 0.00 0.00 49 1009.7
20260508190706 80 212 1.0 3.0 0.00 0.00 0.00 48 1009.8
20260508185719 80 150 1.0 4.0 0.00 0.00 0.00 48 1009.9
20260508185206 80 131 1.0 4.0 0.00 0.00 0.00 49 1009.9
20260508184709 79 178 1.0 4.0 0.00 0.00 0.00 50 1010.0
20260508184139 79 140 1.0 3.0 0.00 0.00 0.00 48 1010.2
20260508183625 78 140 1.0 4.0 0.00 0.00 0.00 52 1010.2
20260508183602 78 148 1.0 4.0 0.00 0.00 0.00 50 1010.4
20260508183102 78 180 1.0 3.0 0.00 0.00 0.00 49 1010.5
20260508182055 78 134 1.0 4.0 0.00 0.00 0.00 53 1010.6
20260508181548 78 134 1.0 4.0 0.00 0.00 0.00 51 1010.6
20260508181022 79 117 1.0 5.0 0.00 0.00 0.00 51 1010.7
20260508181002 79 153 1.0 5.0 0.00 0.00 0.00 49 1010.9
20260508180013 79 191 1.0 3.0 0.00 0.00 0.00 50 1011.0
20260508175509 79 159 0.0 3.0 0.00 0.00 0.00 55 1011.2
20260508175006 79 202 1.0 3.0 0.00 0.00 0.00 56 1011.3
20260508174439 78 199 1.0 5.0 0.00 0.00 0.00 56 1011.4
20260508173935 78 153 1.0 5.0 0.00 0.00 0.00 57 1011.5
20260508173408 78 124 1.0 3.0 0.00 0.00 0.00 54 1011.5
20260508172855 78 212 1.0 3.0 0.00 0.00 0.00 56 1011.5
20260508172357 77 169 1.0 5.0 0.00 0.00 0.00 54 1011.8
20260508171841 77 134 1.0 5.0 0.00 0.00 0.00 56 1011.8
20260508171823 77 186 1.0 7.0 0.00 0.00 0.00 54 1012.0
20260508170839 77 181 1.0 7.0 0.00 0.00 0.00 55 1012.0
20260508170337 77 143 1.0 5.0 0.00 0.00 0.00 58 1012.1
20260508165815 77 209 1.0 5.0 0.00 0.00 0.00 56 1012.2
20260508165240 77 206 1.0 6.0 0.00 0.00 0.00 55 1012.3
20260508164733 77 114 1.0 6.0 0.00 0.00 0.00 55 1012.5
20260508164230 77 184 1.0 5.0 0.00 0.00 0.00 58 1012.5
20260508163701 76 172 1.0 5.0 0.00 0.00 0.00 58 1012.7
20260508163133 76 210 2.0 9.0 0.00 0.00 0.00 56 1012.7
20260508162624 77 117 1.0 9.0 0.00 0.00 0.00 56 1012.7
20260508162546 77 156 1.0 4.0 0.00 0.00 0.00 59 1012.8
20260508161600 76 200 1.0 6.0 0.00 0.00 0.00 61 1012.8
20260508161101 76 190 1.0 6.0 0.00 0.00 0.00 56 1012.9
20260508160559 76 198 1.0 2.0 0.00 0.00 0.00 62 1012.9
20260508160047 75 202 1.0 3.0 0.00 0.00 0.00 60 1013.0
20260508160042 75 214 1.0 3.0 0.00 0.00 0.00 58 1013.0
20260508155045 74 153 1.0 5.0 0.00 0.00 0.00 59 1013.1
20260508154543 74 207 1.0 5.0 0.00 0.00 0.00 60 1013.1
20260508154021 74 175 1.0 4.0 0.00 0.00 0.00 63 1013.2
20260508153446 73 143 1.0 4.0 0.00 0.00 0.00 61 1013.3
20260508152935 73 134 1.0 4.0 0.00 0.00 0.00 62 1013.3
20260508152433 73 207 1.0 4.0 0.00 0.00 0.00 61 1013.4
20260508151906 73 178 1.0 7.0 0.00 0.00 0.00 61 1013.4
20260508151403 73 210 1.0 7.0 0.00 0.00 0.00 61 1013.4
20260508150859 73 159 1.0 4.0 0.00 0.00 0.00 65 1013.4
20260508150359 73 203 1.0 4.0 0.00 0.00 0.00 65 1013.6
20260508145857 72 202 1.0 4.0 0.00 0.00 0.00 65 1013.7
20260508145345 72 158 1.0 4.0 0.00 0.00 0.00 66 1013.7
20260508145329 71 198 1.0 3.0 0.00 0.00 0.00 66 1013.8
20260508144315 71 212 1.0 3.0 0.00 0.00 0.00 66 1013.7
20260508143809 71 221 1.0 3.0 0.00 0.00 0.00 67 1013.7
20260508143245 71 190 1.0 3.0 0.00 0.00 0.00 66 1013.8
20260508143204 70 204 1.0 6.0 0.00 0.00 0.00 71 1013.7
20260508142215 69 198 1.0 6.0 0.00 0.00 0.00 66 1013.6
20260508142125 69 150 1.0 5.0 0.00 0.00 0.00 68 1013.7
20260508141143 69 192 1.0 5.0 0.00 0.00 0.00 67 1013.6
20260508140617 69 146 0.0 3.0 0.00 0.00 0.00 71 1013.8
20260508140047 68 193 1.0 3.0 0.00 0.00 0.00 70 1013.7
20260508135522 67 161 1.0 3.0 0.00 0.00 0.00 71 1013.8
20260508135019 66 141 1.0 3.0 0.00 0.00 0.00 73 1013.7
20260508134515 66 197 1.0 4.0 0.00 0.00 0.00 74 1013.8
20260508134014 65 165 1.0 4.0 0.00 0.00 0.00 74 1013.8
20260508133950 65 207 1.0 3.0 0.00 0.00 0.00 75 1013.8
20260508133011 64 198 1.0 2.0 0.00 0.00 0.00 73 1013.9
20260508132946 64 172 0.0 2.0 0.00 0.00 0.00 74 1013.9
20260508131941 63 141 1.0 2.0 0.00 0.00 0.00 74 1014.0
20260508131417 63 155 0.0 2.0 0.00 0.00 0.00 74 1014.1
20260508130850 62 138 0.0 1.0 0.00 0.00 0.00 75 1014.0
20260508130346 62 182 0.0 2.0 0.00 0.00 0.00 76 1014.0
20260508125839 61 216 1.0 1.0 0.00 0.00 0.00 76 1013.9
20260508125336 60 182 1.0 2.0 0.00 0.00 0.00 76 1013.8
20260508125320 59 146 0.0 2.0 0.00 0.00 0.00 77 1013.9
20260508124317 59 149 0.0 1.0 0.00 0.00 0.00 78 1013.8
20260508124306 58 154 0.0 1.0 0.00 0.00 0.00 79 1013.8
20260508123315 57 150 0.0 2.0 0.00 0.00 0.00 80 1013.8
20260508122814 57 155 0.0 2.0 0.00 0.00 0.00 80 1013.8
20260508122315 56 145 0.0 1.0 0.00 0.00 0.00 82 1013.8
20260508121815 55 151 0.0 1.0 0.00 0.00 0.00 84 1013.8
20260508121728 54 175 0.0 1.0 0.00 0.00 0.00 85 1013.9
20260508121231 53 193 0.0 0.0 0.00 0.00 0.00 87 1013.8
20260508120240 52 193 0.0 0.0 0.00 0.00 0.00 89 1013.9
20260508115737 51 193 0.0 0.0 0.00 0.00 0.00 90 1013.7
20260508115235 49 194 0.0 0.0 0.00 0.00 0.00 91 1013.8
20260508114707 48 198 0.0 0.0 0.00 0.00 0.00 92 1013.7
20260508114205 47 198 0.0 0.0 0.00 0.00 0.00 92 1013.8
20260508114146 46 198 0.0 0.0 0.00 0.00 0.00 92 1013.7
20260508113648 45 198 0.0 0.0 0.00 0.00 0.00 91 1013.6
20260508112641 45 198 0.0 0.0 0.00 0.00 0.00 91 1013.7
20260508112143 45 198 0.0 0.0 0.00 0.00 0.00 91 1013.6
20260508112127 45 198 0.0 0.0 0.00 0.00 0.00 91 1013.5
20260508111128 46 198 0.0 0.0 0.00 0.00 0.00 91 1013.4
20260508110604 45 198 0.0 0.0 0.00 0.00 0.00 92 1013.4
20260508110036 45 198 0.0 0.0 0.00 0.00 0.00 92 1013.4
20260508105533 45 198 0.0 0.0 0.00 0.00 0.00 92 1013.3
20260508105020 45 198 0.0 0.0 0.00 0.00 0.00 91 1013.2
20260508104522 45 198 0.0 0.0 0.00 0.00 0.00 91 1013.2
20260508104018 45 198 0.0 0.0 0.00 0.00 0.00 91 1013.2
20260508103452 45 198 0.0 0.0 0.00 0.00 0.00 91 1013.2
20260508102951 45 198 0.0 0.0 0.00 0.00 0.00 91 1013.2
20260508102933 45 198 0.0 0.0 0.00 0.00 0.00 90 1013.1
20260508101947 45 198 0.0 0.0 0.00 0.00 0.00 90 1013.1
20260508101420 45 198 0.0 0.0 0.00 0.00 0.00 90 1013.1
20260508100916 45 198 0.0 0.0 0.00 0.00 0.00 90 1013.1
20260508100349 45 198 0.0 0.0 0.00 0.00 0.00 89 1012.9
20260508095847 45 198 0.0 0.0 0.00 0.00 0.00 89 1012.9
20260508095804 45 198 0.0 0.0 0.00 0.00 0.00 89 1012.9
20260508094815 45 198 0.0 0.0 0.00 0.00 0.00 88 1012.9
20260508094313 45 198 0.0 0.0 0.00 0.00 0.00 88 1013.0
20260508093746 46 198 0.0 0.0 0.00 0.00 0.00 88 1012.9
20260508093244 46 198 0.0 0.0 0.00 0.00 0.00 88 1012.9
20260508093204 46 198 0.0 0.0 0.00 0.00 0.00 88 1012.9
20260508092213 47 198 0.0 0.0 0.00 0.00 0.00 89 1012.8
20260508091706 47 198 0.0 0.0 0.00 0.00 0.00 89 1012.9
20260508091202 47 198 0.0 0.0 0.00 0.00 0.00 89 1012.9
20260508090639 47 198 0.0 0.0 0.00 0.00 0.00 89 1012.8
20260508090122 47 198 0.0 0.0 0.00 0.00 0.00 89 1012.8
20260508085621 47 198 0.0 0.0 0.00 0.00 0.00 89 1012.9
20260508085122 46 198 0.0 0.0 0.00 0.00 0.00 89 1012.9
20260508084606 46 198 0.0 0.0 0.00 0.00 0.00 89 1012.9
20260508084109 46 198 0.0 0.0 0.00 0.00 0.00 89 1013.0
20260508083542 46 198 0.0 0.0 0.00 0.00 0.00 88 1013.0
20260508083037 46 198 0.0 0.0 0.00 0.00 0.00 88 1013.1
20260508082533 46 198 0.0 0.0 0.00 0.00 0.00 87 1013.1
20260508082008 46 198 0.0 0.0 0.00 0.00 0.00 87 1013.1
20260508081443 47 198 0.0 0.0 0.00 0.00 0.00 87 1013.2
20260508080926 47 198 0.0 0.0 0.00 0.00 0.00 86 1013.2
20260508080424 47 198 0.0 0.0 0.00 0.00 0.00 87 1013.3
20260508075925 47 198 0.0 0.0 0.00 0.00 0.00 87 1013.4
20260508075423 48 198 0.0 0.0 0.00 0.00 0.00 87 1013.4
20260508074916 48 198 0.0 0.0 0.00 0.00 0.00 86 1013.5
20260508074353 48 198 0.0 0.0 0.00 0.00 0.00 86 1013.5
20260508073837 48 198 0.0 0.0 0.00 0.00 0.00 85 1013.5
20260508073310 48 198 0.0 0.0 0.00 0.00 0.00 85 1013.4
20260508072807 49 198 0.0 0.0 0.00 0.00 0.00 84 1013.5
20260508072247 49 198 0.0 0.0 0.00 0.00 0.00 84 1013.5
20260508071747 49 198 0.0 0.0 0.00 0.00 0.00 84 1013.5
20260508071220 50 198 0.0 0.0 0.00 0.00 0.00 84 1013.5
20260508071152 50 198 0.0 0.0 0.00 0.00 0.00 84 1013.6
20260508070209 50 199 0.0 0.0 0.00 0.00 0.00 84 1013.7
20260508065707 50 150 0.0 1.0 0.00 0.00 0.00 84 1013.8
20260508065154 50 148 0.0 1.0 0.00 0.00 0.00 84 1013.8
20260508064637 50 161 0.0 0.0 0.00 0.00 0.00 84 1013.9
20260508064135 50 161 0.0 0.0 0.00 0.00 0.00 84 1014.1
20260508063624 50 161 0.0 0.0 0.00 0.00 0.00 84 1014.0
20260508063123 50 161 0.0 0.0 0.00 0.00 0.00 85 1014.1
20260508062558 49 201 0.0 1.0 0.00 0.00 0.00 85 1014.2
20260508062055 49 210 0.0 1.0 0.00 0.00 0.00 85 1014.3
20260508061555 49 212 0.0 1.0 0.00 0.00 0.00 85 1014.5
20260508061030 49 212 0.0 0.0 0.00 0.00 0.00 85 1014.3
20260508060505 49 212 0.0 0.0 0.00 0.00 0.00 85 1014.3
20260508060002 49 213 0.0 0.0 0.00 0.00 0.00 85 1014.2
20260508055459 49 214 0.0 0.0 0.00 0.00 0.00 85 1014.3
20260508054958 49 214 0.0 0.0 0.00 0.00 0.00 85 1014.5
20260508054454 49 214 0.0 0.0 0.00 0.00 0.00 85 1014.5
20260508053927 49 214 0.0 0.0 0.00 0.00 0.00 85 1014.5
20260508053357 49 214 0.0 0.0 0.00 0.00 0.00 85 1014.5
20260508053321 49 214 0.0 0.0 0.00 0.00 0.00 85 1014.5
20260508052817 49 214 0.0 0.0 0.00 0.00 0.00 85 1014.6
20260508051829 49 213 0.0 0.0 0.00 0.00 0.00 85 1014.6
20260508051810 49 214 0.0 0.0 0.00 0.00 0.00 85 1014.6
20260508050816 49 214 0.0 0.0 0.00 0.00 0.00 85 1014.6
20260508050318 49 214 0.0 0.0 0.00 0.00 0.00 85 1014.7
20260508050240 49 214 0.0 0.0 0.00 0.00 0.00 85 1014.6
20260508045225 49 213 0.0 0.0 0.00 0.00 0.00 85 1014.7
20260508044723 49 213 0.0 0.0 0.00 0.00 0.00 85 1014.7
20260508044203 49 214 0.0 0.0 0.00 0.00 0.00 85 1014.7
20260508043705 49 214 0.0 0.0 0.00 0.00 0.00 84 1014.8
20260508043655 49 214 0.0 0.0 0.00 0.00 0.00 84 1014.8
20260508042632 49 214 0.0 0.0 0.00 0.00 0.00 84 1014.8
20260508042109 49 214 0.0 0.0 0.00 0.00 0.00 83 1014.7
20260508041605 49 214 0.0 0.0 0.00 0.00 0.00 83 1014.8
20260508041103 49 214 0.0 0.0 0.00 0.00 0.00 82 1014.8
20260508040535 50 214 0.0 0.0 0.00 0.00 0.00 82 1014.9
20260508040034 50 214 0.0 0.0 0.00 0.00 0.00 83 1015.0